Time;durP1;ratioP1;P1;durP2;ratioP2;P2;SDS_P1;SDS_P2;PMS_P1;PMS_P2;Temp;Humidity;BMP_temperature;BMP_pressure;BME280_temperature;BME280_humidity;BME280_pressure;Samples;Min_cycle;Max_cycle;Signal;HPM_P1;HPM_P2
2022/03/20 00:01:05;;;;;;;10.63;6.10;;;4.60;99.90;;;;;;5113248;28;20040;-66
2022/03/20 00:03:32;;;;;;;7.90;5.30;;;4.50;99.90;;;;;;5105645;28;20077;-66
2022/03/20 00:05:58;;;;;;;10.40;5.70;;;4.50;99.90;;;;;;5117982;28;20047;-65
2022/03/20 00:08:25;;;;;;;13.10;5.40;;;4.50;99.90;;;;;;5125637;28;20047;-65
2022/03/20 00:10:53;;;;;;;8.00;4.40;;;4.50;99.90;;;;;;5107642;27;20174;-65
2022/03/20 00:13:21;;;;;;;9.60;5.45;;;4.50;99.90;;;;;;5105171;28;20040;-65
2022/03/20 00:15:49;;;;;;;10.05;5.22;;;4.50;99.90;;;;;;5119576;28;20043;-65
2022/03/20 00:18:15;;;;;;;8.63;4.75;;;4.50;99.90;;;;;;5125713;28;20143;-65
2022/03/20 00:20:45;;;;;;;10.02;6.45;;;4.50;99.90;;;;;;5109094;28;20079;-66
2022/03/20 00:23:12;;;;;;;14.57;6.00;;;4.50;99.90;;;;;;5104224;28;20052;-66
2022/03/20 00:25:39;;;;;;;9.57;5.93;;;4.40;99.90;;;;;;5105968;28;20063;-65
2022/03/20 00:28:10;;;;;;;10.32;5.43;;;4.40;99.90;;;;;;5104962;28;20341;-66
2022/03/20 00:30:36;;;;;;;10.65;5.72;;;4.40;99.90;;;;;;5121827;28;20131;-65
2022/03/20 00:33:02;;;;;;;12.00;5.55;;;4.40;99.90;;;;;;5106044;28;20085;-66
2022/03/20 00:35:29;;;;;;;11.15;5.90;;;4.30;99.90;;;;;;5104941;28;20044;-65
2022/03/20 00:37:55;;;;;;;11.93;6.45;;;4.30;99.90;;;;;;5108843;28;20055;-66
2022/03/20 00:40:21;;;;;;;11.70;6.10;;;4.20;99.90;;;;;;5119281;28;20036;-66
2022/03/20 00:42:46;;;;;;;9.88;5.70;;;4.20;99.90;;;;;;5106278;28;20537;-65
2022/03/20 00:45:12;;;;;;;11.25;5.55;;;4.20;99.90;;;;;;5104598;28;20131;-65
2022/03/20 00:47:38;;;;;;;13.40;5.22;;;4.20;99.90;;;;;;5104501;28;20103;-65
2022/03/20 00:50:04;;;;;;;15.30;5.22;;;4.10;99.90;;;;;;5104297;28;20048;-65
2022/03/20 00:52:32;;;;;;;10.25;5.47;;;4.20;99.90;;;;;;5103781;28;20083;-65
2022/03/20 00:54:59;;;;;;;8.45;4.93;;;4.20;99.90;;;;;;5104289;28;20062;-65
2022/03/20 00:57:25;;;;;;;11.38;6.25;;;4.10;99.90;;;;;;5104571;28;20054;-68
2022/03/20 00:59:51;;;;;;;13.73;6.68;;;4.10;99.90;;;;;;5103277;28;20119;-72
2022/03/20 01:02:16;;;;;;;12.13;7.28;;;4.00;99.90;;;;;;5104797;28;20043;-73
2022/03/20 01:04:42;;;;;;;7.85;5.43;;;4.00;99.90;;;;;;5104251;28;20063;-73
2022/03/20 01:07:08;;;;;;;12.70;6.22;;;4.00;99.90;;;;;;5103881;28;20040;-74
2022/03/20 01:09:34;;;;;;;8.52;6.57;;;3.90;99.90;;;;;;5104610;28;20104;-73
2022/03/20 01:12:00;;;;;;;13.23;5.32;;;3.90;99.90;;;;;;5104332;28;20040;-72
2022/03/20 01:14:27;;;;;;;11.63;5.68;;;3.90;99.90;;;;;;5104632;28;20055;-73
2022/03/20 01:16:54;;;;;;;11.10;6.28;;;3.90;99.90;;;;;;5102728;28;20036;-73
2022/03/20 01:19:23;;;;;;;10.68;6.63;;;3.90;99.90;;;;;;5104238;28;20134;-72
2022/03/20 01:21:50;;;;;;;8.82;5.00;;;3.90;99.90;;;;;;5104436;28;20032;-73
2022/03/20 01:24:16;;;;;;;9.30;5.45;;;3.80;99.90;;;;;;5108595;28;20059;-73
2022/03/20 01:26:41;;;;;;;11.35;6.22;;;3.80;99.90;;;;;;5107303;28;20044;-73
2022/03/20 01:29:07;;;;;;;9.85;5.13;;;3.80;99.90;;;;;;5108337;28;20043;-73
2022/03/20 01:31:33;;;;;;;8.75;5.63;;;3.80;99.90;;;;;;5108327;28;20048;-72
2022/03/20 01:33:59;;;;;;;15.35;8.00;;;3.80;99.90;;;;;;5108465;28;20051;-72
2022/03/20 01:36:26;;;;;;;16.35;7.10;;;3.70;99.90;;;;;;5107316;28;20033;-72
2022/03/20 01:38:53;;;;;;;15.05;6.57;;;3.70;99.90;;;;;;5108724;28;20322;-72
2022/03/20 01:41:19;;;;;;;13.32;7.35;;;3.70;99.90;;;;;;5107833;28;20511;-73
2022/03/20 01:43:53;;;;;;;15.38;6.28;;;3.70;99.90;;;;;;5106713;28;20044;-72
2022/03/20 01:46:19;;;;;;;10.75;6.18;;;3.70;99.90;;;;;;5108065;28;20044;-72
2022/03/20 01:48:45;;;;;;;18.58;8.55;;;3.70;99.90;;;;;;5107833;28;20044;-72
2022/03/20 01:51:11;;;;;;;9.68;6.35;;;3.60;99.90;;;;;;5107031;28;20595;-72
2022/03/20 01:53:37;;;;;;;14.68;6.22;;;3.60;99.90;;;;;;5108256;28;20090;-72
2022/03/20 01:56:03;;;;;;;16.30;7.70;;;3.70;99.90;;;;;;5106456;28;20044;-73
2022/03/20 01:58:29;;;;;;;13.68;7.63;;;3.60;99.90;;;;;;5108006;28;20552;-72
2022/03/20 02:00:55;;;;;;;9.80;5.28;;;3.60;99.90;;;;;;5107648;28;20067;-73
2022/03/20 02:03:20;;;;;;;10.95;6.03;;;3.60;99.90;;;;;;5107756;28;20158;-72
2022/03/20 02:05:46;;;;;;;15.60;8.43;;;3.60;99.90;;;;;;5106337;28;20055;-73
2022/03/20 02:08:12;;;;;;;13.77;7.32;;;3.50;99.90;;;;;;5107038;28;20040;-74
2022/03/20 02:10:40;;;;;;;15.52;6.70;;;3.50;99.90;;;;;;5106298;28;20054;-74
2022/03/20 02:13:06;;;;;;;15.55;7.25;;;3.50;99.90;;;;;;5107557;28;20194;-72
2022/03/20 02:15:32;;;;;;;14.50;6.38;;;3.40;99.90;;;;;;5107431;28;20102;-72
2022/03/20 02:17:58;;;;;;;12.50;6.70;;;3.40;99.90;;;;;;5107642;28;20132;-73
2022/03/20 02:20:24;;;;;;;13.13;6.85;;;3.40;99.90;;;;;;5107116;28;20056;-73
2022/03/20 02:22:50;;;;;;;16.55;7.95;;;3.40;99.90;;;;;;5106722;28;20040;-73
2022/03/20 02:25:17;;;;;;;13.45;7.78;;;3.40;99.90;;;;;;5107140;28;20052;-72
2022/03/20 02:27:44;;;;;;;13.45;7.25;;;3.40;99.90;;;;;;5107104;28;20032;-72
2022/03/20 02:30:14;;;;;;;13.07;7.53;;;3.30;99.90;;;;;;5107597;28;20044;-72
2022/03/20 02:32:48;;;;;;;18.02;10.60;;;3.30;99.90;;;;;;5106922;28;20392;-72
2022/03/20 02:35:16;;;;;;;11.77;6.75;;;3.30;99.90;;;;;;5106869;28;20439;-74
2022/03/20 02:37:47;;;;;;;14.10;7.85;;;3.30;99.90;;;;;;5105100;28;20516;-74
2022/03/20 02:40:15;;;;;;;16.15;8.55;;;3.30;99.90;;;;;;5106979;28;20524;-74
2022/03/20 02:42:45;;;;;;;;;;;3.20;99.90;;;;;;5107377;28;20059;-73
2022/03/20 02:45:16;;;;;;;17.88;9.82;;;3.20;99.90;;;;;;5107054;28;20426;-74
2022/03/20 02:47:44;;;;;;;18.90;9.57;;;3.20;99.90;;;;;;5106728;28;20048;-73
2022/03/20 02:50:24;;;;;;;12.27;7.15;;;3.20;99.90;;;;;;5106368;28;20051;-73
2022/03/20 02:52:59;;;;;;;14.20;6.88;;;3.20;99.90;;;;;;5106097;28;20048;-73
2022/03/20 02:55:28;;;;;;;10.80;6.95;;;3.20;99.90;;;;;;5106740;28;20048;-73
2022/03/20 02:57:55;;;;;;;;;;;3.20;99.90;;;;;;5107028;28;20140;-72
2022/03/20 03:00:26;;;;;;;14.40;9.02;;;3.20;99.90;;;;;;5106904;28;19920;-73
2022/03/20 03:02:54;;;;;;;18.38;11.45;;;3.20;99.90;;;;;;5106935;28;20080;-73
2022/03/20 03:05:23;;;;;;;17.33;8.93;;;3.20;99.90;;;;;;5106137;28;20036;-73
2022/03/20 03:13:23;;;;;;;17.25;10.38;;;3.20;99.90;;;;;;5106285;28;20082;-72
2022/03/20 03:15:51;;;;;;;;;;;3.20;99.90;;;;;;5106675;28;20044;-73
2022/03/20 03:18:16;;;;;;;12.95;8.18;;;3.20;99.90;;;;;;5139544;27;20319;-73
2022/03/20 03:20:42;;;;;;;15.45;10.27;;;3.20;99.90;;;;;;5104576;28;20048;-73
2022/03/20 03:23:08;;;;;;;19.63;10.13;;;3.30;99.90;;;;;;5105566;28;20055;-73
2022/03/20 03:25:37;;;;;;;12.07;7.97;;;3.20;99.90;;;;;;5106295;28;20044;-73
2022/03/20 03:28:04;;;;;;;18.27;10.13;;;3.10;99.90;;;;;;5105932;28;20084;-71
2022/03/20 03:30:30;;;;;;;14.63;9.23;;;3.20;99.90;;;;;;5106301;28;20100;-72
2022/03/20 03:32:56;;;;;;;17.08;11.23;;;3.10;99.90;;;;;;5106051;28;20058;-73
2022/03/20 03:38:06;;;;;;;16.50;11.07;;;3.10;99.90;;;;;;5105449;28;20087;-74
2022/03/20 03:40:32;;;;;;;13.48;9.68;;;3.10;99.90;;;;;;5106050;28;20052;-74
2022/03/20 03:42:58;;;;;;;14.57;10.23;;;3.10;99.90;;;;;;5105833;28;20070;-73
2022/03/20 03:45:25;;;;;;;17.88;10.68;;;3.00;99.90;;;;;;5105313;28;20048;-74
2022/03/20 03:47:51;;;;;;;20.53;11.57;;;3.00;99.90;;;;;;5096121;28;20115;-74
2022/03/20 03:50:18;;;;;;;21.23;10.73;;;3.00;99.90;;;;;;5085154;28;20056;-73
2022/03/20 03:52:44;;;;;;;14.07;8.20;;;2.90;99.90;;;;;;5084849;28;20097;-73
2022/03/20 03:55:10;;;;;;;18.85;10.95;;;3.00;99.90;;;;;;5087517;28;20524;-73
2022/03/20 03:57:36;;;;;;;17.60;10.90;;;2.90;99.90;;;;;;5105773;28;20036;-73
2022/03/20 04:00:03;;;;;;;25.55;12.20;;;3.00;99.90;;;;;;5105460;28;20339;-73
2022/03/20 04:02:29;;;;;;;21.77;11.20;;;3.00;99.90;;;;;;5105260;28;20119;-73
2022/03/20 04:04:55;;;;;;;23.02;13.30;;;2.90;99.90;;;;;;5105162;28;20043;-73
2022/03/20 04:07:21;;;;;;;17.17;11.43;;;2.80;99.90;;;;;;5103502;28;20050;-73
2022/03/20 04:09:47;;;;;;;20.45;12.15;;;2.80;99.90;;;;;;5105400;28;20048;-74
2022/03/20 04:12:14;;;;;;;20.52;11.90;;;2.80;99.90;;;;;;5105112;28;20044;-73
2022/03/20 04:14:43;;;;;;;15.90;11.07;;;2.70;99.90;;;;;;5105225;28;20062;-73
2022/03/20 04:17:09;;;;;;;26.08;10.75;;;2.70;99.90;;;;;;5105061;28;20099;-73
2022/03/20 04:19:35;;;;;;;20.00;13.02;;;2.70;99.90;;;;;;5104774;28;20044;-72
2022/03/20 04:22:01;;;;;;;18.83;9.80;;;2.70;99.90;;;;;;5104630;28;20040;-72
2022/03/20 04:24:28;;;;;;;20.52;12.23;;;2.70;99.90;;;;;;5105378;28;20072;-73
2022/03/20 04:26:55;;;;;;;18.42;13.05;;;2.70;99.90;;;;;;5105028;28;20051;-73
2022/03/20 04:29:20;;;;;;;14.55;10.35;;;2.60;99.90;;;;;;5104820;28;20055;-73
2022/03/20 04:31:50;;;;;;;13.77;9.88;;;2.60;99.90;;;;;;5104910;28;20040;-73
2022/03/20 04:34:16;;;;;;;25.50;13.52;;;2.50;99.90;;;;;;5104807;28;20438;-72
2022/03/20 04:36:42;;;;;;;16.48;10.90;;;2.50;99.90;;;;;;5103037;28;20426;-72
2022/03/20 04:39:08;;;;;;;19.52;12.50;;;2.50;99.90;;;;;;5104745;28;20036;-72
2022/03/20 04:41:34;;;;;;;14.20;10.27;;;2.40;99.90;;;;;;5104762;28;20163;-73
2022/03/20 04:44:00;;;;;;;18.55;10.65;;;2.50;99.90;;;;;;5103500;28;20040;-72
2022/03/20 04:46:26;;;;;;;13.88;9.98;;;2.50;99.90;;;;;;5104334;28;20105;-72
2022/03/20 04:59:50;;;;;;;22.45;14.35;;;2.40;99.90;;;;;;5104403;28;20087;-73
2022/03/20 05:02:16;;;;;;;23.90;14.05;;;2.40;99.90;;;;;;5104537;28;20041;-72
2022/03/20 05:04:42;;;;;;;23.55;13.00;;;2.40;99.90;;;;;;5104211;28;20051;-72
2022/03/20 05:07:07;;;;;;;23.52;12.52;;;2.30;99.90;;;;;;5104187;28;20051;-72
2022/03/20 05:15:07;;;;;;;20.90;13.43;;;2.30;99.90;;;;;;5104182;28;20784;-74
2022/03/20 05:17:33;;;;;;;25.55;13.52;;;2.30;99.90;;;;;;5102940;28;20051;-74
2022/03/20 05:19:59;;;;;;;24.85;14.65;;;2.20;99.90;;;;;;5104100;28;20052;-73
2022/03/20 05:22:24;;;;;;;22.58;13.48;;;2.20;99.90;;;;;;5103523;28;20054;-74
2022/03/20 05:24:50;;;;;;;25.40;13.30;;;2.20;99.90;;;;;;5103033;28;20071;-73
2022/03/20 05:27:16;;;;;;;22.27;15.73;;;2.20;99.90;;;;;;5104087;28;20048;-73
2022/03/20 05:29:41;;;;;;;22.48;14.70;;;2.20;99.90;;;;;;5104012;28;20051;-73
2022/03/20 05:32:08;;;;;;;25.02;15.90;;;2.20;99.90;;;;;;5103977;28;20050;-73
2022/03/20 05:34:35;;;;;;;23.27;14.98;;;2.20;99.90;;;;;;5103664;28;20078;-72
2022/03/20 05:37:01;;;;;;;27.23;14.98;;;2.20;99.90;;;;;;5103213;28;20072;-72
2022/03/20 05:39:27;;;;;;;23.20;15.52;;;2.10;99.90;;;;;;5103898;28;20048;-72
2022/03/20 05:41:53;;;;;;;27.25;14.65;;;2.10;99.90;;;;;;5103924;28;20036;-72
2022/03/20 05:44:21;;;;;;;18.20;12.35;;;2.10;99.90;;;;;;5103943;28;20044;-72
2022/03/20 05:46:49;;;;;;;22.60;14.93;;;2.20;99.90;;;;;;5103924;28;20047;-72
2022/03/20 05:49:15;;;;;;;20.77;14.45;;;2.20;99.90;;;;;;5103946;28;20074;-73
2022/03/20 05:51:41;;;;;;;22.08;13.68;;;2.30;99.90;;;;;;5102877;28;20048;-72
2022/03/20 05:54:07;;;;;;;19.95;14.18;;;2.20;99.90;;;;;;5103703;28;20167;-71
2022/03/20 05:59:18;;;;;;;29.52;16.98;;;2.20;99.90;;;;;;5103862;28;20087;-72
2022/03/20 06:01:44;;;;;;;22.20;12.93;;;2.20;99.90;;;;;;5102393;28;20433;-72
2022/03/20 06:04:10;;;;;;;33.92;14.98;;;2.20;99.90;;;;;;5104050;28;20032;-72
2022/03/20 06:06:37;;;;;;;27.92;14.15;;;2.20;99.90;;;;;;5102876;28;20119;-73
2022/03/20 06:09:06;;;;;;;21.38;13.45;;;2.30;99.90;;;;;;5106297;28;20051;-72
2022/03/20 06:11:34;;;;;;;23.25;12.82;;;2.20;99.90;;;;;;5106038;28;20056;-72
2022/03/20 06:14:03;;;;;;;;;;;2.20;99.90;;;;;;5108223;28;20529;-72
2022/03/20 06:16:29;;;;;;;19.35;14.48;;;2.20;99.90;;;;;;5107543;28;19920;-72
2022/03/20 06:18:55;;;;;;;24.15;13.43;;;2.20;99.90;;;;;;5106214;28;20051;-72
2022/03/20 06:21:23;;;;;;;19.90;14.45;;;2.20;99.90;;;;;;5104936;28;20070;-73
2022/03/20 06:23:49;;;;;;;24.17;14.93;;;2.30;99.90;;;;;;5107387;28;20051;-72
2022/03/20 06:26:16;;;;;;;26.30;15.43;;;2.30;99.90;;;;;;5107012;28;20044;-72
2022/03/20 06:28:43;;;;;;;17.75;10.77;;;2.40;99.90;;;;;;5107193;28;20102;-72
2022/03/20 06:31:10;;;;;;;20.77;14.25;;;2.40;99.90;;;;;;5107337;28;20036;-74
2022/03/20 06:33:37;;;;;;;22.45;13.18;;;2.40;99.90;;;;;;5107110;28;20048;-73
2022/03/20 06:36:04;;;;;;;18.95;13.48;;;2.40;99.90;;;;;;5105962;28;20048;-73
2022/03/20 06:38:31;;;;;;;21.95;14.45;;;2.40;99.90;;;;;;5105641;28;20055;-73
2022/03/20 06:40:57;;;;;;;22.05;14.50;;;2.50;99.90;;;;;;5106698;28;20044;-73
2022/03/20 06:43:25;;;;;;;23.33;14.23;;;2.50;99.90;;;;;;5107239;28;20496;-73
2022/03/20 06:45:53;;;;;;;16.35;10.63;;;2.50;99.90;;;;;;5105273;28;20055;-74
2022/03/20 06:48:19;;;;;;;23.58;14.43;;;2.50;99.90;;;;;;5106753;28;20043;-73
2022/03/20 06:50:45;;;;;;;26.67;14.57;;;2.50;99.90;;;;;;5106396;28;20076;-73
2022/03/20 06:53:11;;;;;;;15.00;11.45;;;2.60;99.90;;;;;;5106220;28;20048;-73
2022/03/20 06:55:39;;;;;;;22.40;13.07;;;3.10;99.90;;;;;;5105336;28;20048;-73
2022/03/20 06:58:05;;;;;;;;;;;2.60;99.90;;;;;;5107110;28;20496;-73
2022/03/20 07:00:31;;;;;;;29.25;14.07;;;2.70;99.90;;;;;;5106489;28;19959;-73
2022/03/20 07:03:03;;;;;;;25.45;16.05;;;2.70;99.90;;;;;;5105517;28;20131;-73
2022/03/20 07:05:30;;;;;;;17.48;10.82;;;2.70;99.90;;;;;;5106076;28;20044;-73
2022/03/20 07:07:55;;;;;;;22.88;13.23;;;2.80;99.90;;;;;;5105971;28;20039;-73
2022/03/20 07:10:22;;;;;;;22.67;14.18;;;2.80;99.90;;;;;;5106892;28;20078;-73
2022/03/20 07:12:50;;;;;;;25.63;16.13;;;2.80;99.90;;;;;;5106327;28;20071;-75
2022/03/20 07:15:18;;;;;;;20.65;15.18;;;2.90;99.90;;;;;;5106203;28;20082;-74
2022/03/20 07:17:47;;;;;;;;;;;2.90;99.90;;;;;;5106736;28;20063;-74
2022/03/20 07:20:16;;;;;;;22.25;13.60;;;3.00;99.90;;;;;;5105219;28;19920;-73
2022/03/20 07:22:43;;;;;;;21.95;12.77;;;3.00;99.90;;;;;;5105897;28;20108;-74
2022/03/20 07:30:38;;;;;;;23.27;15.00;;;3.20;99.90;;;;;;5105766;28;20562;-74
2022/03/20 07:33:04;;;;;;;22.63;14.88;;;3.10;99.90;;;;;;5106183;28;20044;-74
2022/03/20 07:35:30;;;;;;;24.13;14.23;;;3.20;99.90;;;;;;5105575;28;20044;-74
2022/03/20 07:37:56;;;;;;;22.75;13.85;;;3.20;99.90;;;;;;5105731;28;20043;-75
2022/03/20 07:40:22;;;;;;;26.58;14.77;;;3.30;99.90;;;;;;5106109;28;20511;-75
2022/03/20 07:42:48;;;;;;;24.63;15.68;;;3.30;99.90;;;;;;5105749;28;20504;-74
2022/03/20 07:45:13;;;;;;;20.95;16.42;;;3.40;99.90;;;;;;5105828;28;20044;-73
2022/03/20 07:47:39;;;;;;;20.10;12.18;;;3.50;99.90;;;;;;5105677;28;20130;-74
2022/03/20 07:50:08;;;;;;;20.88;12.90;;;3.50;99.90;;;;;;5104685;28;20044;-73
2022/03/20 07:52:35;;;;;;;30.20;18.17;;;3.60;99.90;;;;;;5105034;28;20066;-74
2022/03/20 07:55:02;;;;;;;21.10;12.60;;;3.70;99.90;;;;;;5105323;28;20070;-74
2022/03/20 07:57:29;;;;;;;17.77;13.73;;;3.70;99.90;;;;;;5105516;28;20051;-74
2022/03/20 07:59:56;;;;;;;17.38;11.63;;;3.80;99.90;;;;;;5104130;28;20059;-73
2022/03/20 08:02:23;;;;;;;20.38;13.77;;;3.90;99.90;;;;;;5105298;28;20047;-73
2022/03/20 08:04:51;;;;;;;17.38;12.50;;;4.00;99.90;;;;;;5103920;28;20055;-73
2022/03/20 08:07:19;;;;;;;21.60;17.20;;;4.00;99.90;;;;;;5086391;28;20044;-74
2022/03/20 08:09:45;;;;;;;20.17;12.15;;;4.10;99.90;;;;;;5105035;28;20126;-75
2022/03/20 08:12:11;;;;;;;26.02;19.73;;;4.20;99.90;;;;;;5103924;28;20048;-75
2022/03/20 08:14:37;;;;;;;18.90;14.63;;;4.30;99.90;;;;;;5105290;28;20076;-75
2022/03/20 08:17:06;;;;;;;25.45;12.70;;;4.40;99.90;;;;;;5105555;28;20032;-75
2022/03/20 08:19:32;;;;;;;20.45;12.73;;;4.30;99.90;;;;;;5103948;28;20059;-74
2022/03/20 08:21:59;;;;;;;21.83;11.73;;;4.50;99.90;;;;;;5104020;28;20033;-74
2022/03/20 08:24:25;;;;;;;21.52;14.73;;;4.50;99.90;;;;;;5105819;28;20051;-75
2022/03/20 08:26:50;;;;;;;19.65;14.45;;;4.60;99.90;;;;;;5104755;28;20044;-75
2022/03/20 08:29:16;;;;;;;21.13;14.63;;;4.60;99.90;;;;;;5104839;28;20039;-73
2022/03/20 08:31:47;;;;;;;27.35;11.82;;;4.70;99.90;;;;;;5101266;28;20070;-74
2022/03/20 08:34:15;;;;;;;21.02;11.93;;;4.70;99.90;;;;;;5093598;28;20054;-74
2022/03/20 08:36:44;;;;;;;19.48;12.52;;;4.80;99.90;;;;;;5101752;28;20044;-74
2022/03/20 08:39:10;;;;;;;24.70;14.40;;;5.00;99.50;;;;;;5104817;28;20036;-75
2022/03/20 08:41:36;;;;;;;18.83;11.85;;;5.10;99.10;;;;;;5104602;28;20040;-74
2022/03/20 08:44:05;;;;;;;22.17;16.75;;;5.10;98.70;;;;;;5104398;28;20113;-75
2022/03/20 08:46:32;;;;;;;23.02;16.13;;;5.10;98.10;;;;;;5104428;28;20099;-74
2022/03/20 08:48:58;;;;;;;15.30;10.23;;;5.10;98.30;;;;;;5104580;28;20040;-74
2022/03/20 08:51:24;;;;;;;19.48;13.45;;;5.20;99.10;;;;;;5103642;28;20059;-75
2022/03/20 08:53:50;;;;;;;18.48;14.07;;;5.30;98.30;;;;;;5118404;28;20044;-74
2022/03/20 08:56:16;;;;;;;16.90;11.82;;;5.20;98.30;;;;;;5086367;28;20514;-74
2022/03/20 08:58:42;;;;;;;18.75;13.10;;;5.30;98.10;;;;;;5103105;28;20469;-74
2022/03/20 09:01:07;;;;;;;23.65;18.13;;;5.50;97.30;;;;;;5104150;28;20280;-74
2022/03/20 09:03:33;;;;;;;20.60;12.40;;;5.60;96.20;;;;;;5104443;28;20040;-74
2022/03/20 09:05:59;;;;;;;23.42;12.88;;;5.70;96.60;;;;;;5106211;28;20055;-74
2022/03/20 09:08:24;;;;;;;23.90;14.68;;;5.90;95.80;;;;;;5118018;28;20101;-76
2022/03/20 09:10:51;;;;;;;22.40;14.35;;;6.00;95.00;;;;;;5124572;28;20067;-75
2022/03/20 09:13:17;;;;;;;21.90;14.98;;;6.10;93.90;;;;;;5112392;28;20044;-75
2022/03/20 09:15:43;;;;;;;22.92;13.55;;;6.10;92.90;;;;;;5110503;28;20085;-75
2022/03/20 09:20:53;;;;;;;23.23;16.45;;;6.30;92.70;;;;;;5103723;28;20462;-75
2022/03/20 09:23:19;;;;;;;24.17;17.25;;;6.30;92.00;;;;;;5102418;28;20036;-75
2022/03/20 09:25:45;;;;;;;21.27;13.45;;;6.30;90.80;;;;;;5094083;28;20048;-76
2022/03/20 09:28:12;;;;;;;25.08;15.20;;;6.30;91.20;;;;;;5096988;28;20047;-75
2022/03/20 09:30:39;;;;;;;25.95;15.32;;;6.70;91.40;;;;;;5083783;28;20057;-74
2022/03/20 09:33:06;;;;;;;26.02;18.63;;;6.80;90.30;;;;;;5118027;28;20048;-74
2022/03/20 09:35:36;;;;;;;24.90;15.43;;;6.70;84.20;;;;;;5093345;28;20036;-74
2022/03/20 09:38:03;;;;;;;24.50;15.32;;;6.70;85.60;;;;;;5105921;28;20044;-74
2022/03/20 09:40:30;;;;;;;22.80;16.20;;;6.80;87.10;;;;;;5118618;28;20135;-74
2022/03/20 09:42:55;;;;;;;24.23;15.95;;;6.80;85.70;;;;;;5103597;28;20038;-74
2022/03/20 09:45:21;;;;;;;21.25;13.00;;;7.00;84.00;;;;;;5104887;28;20126;-75
2022/03/20 09:47:47;;;;;;;22.25;14.80;;;7.20;83.20;;;;;;5103541;28;20044;-73
2022/03/20 09:50:14;;;;;;;23.27;17.58;;;7.20;80.00;;;;;;5108107;28;20048;-74
2022/03/20 09:52:40;;;;;;;23.42;14.38;;;7.10;78.30;;;;;;5107397;28;20056;-73
2022/03/20 09:55:08;;;;;;;20.90;13.48;;;7.20;79.70;;;;;;5107773;28;20040;-74
2022/03/20 09:57:34;;;;;;;;;;;7.30;76.70;;;;;;5108196;28;20048;-74
2022/03/20 10:00:04;;;;;;;23.70;16.05;;;7.50;78.20;;;;;;5121133;28;19942;-73
2022/03/20 10:02:31;;;;;;;29.35;18.58;;;7.80;74.70;;;;;;5123399;28;20063;-68
2022/03/20 10:05:00;;;;;;;27.17;15.88;;;7.90;73.10;;;;;;5128287;28;20047;-67
2022/03/20 10:07:30;;;;;;;23.30;14.90;;;7.90;69.80;;;;;;5107257;28;20068;-66
2022/03/20 10:10:11;;;;;;;25.65;16.70;;;8.10;68.20;;;;;;5107369;28;20043;-66
2022/03/20 10:12:41;;;;;;;21.05;13.75;;;8.00;66.90;;;;;;5135410;27;20081;-66
2022/03/20 10:15:11;;;;;;;27.23;17.20;;;8.00;65.90;;;;;;5127759;28;20055;-65
2022/03/20 10:17:37;;;;;;;23.95;15.15;;;8.20;63.50;;;;;;5086983;28;20032;-65
2022/03/20 10:20:21;;;;;;;26.05;17.88;;;8.20;63.60;;;;;;5095969;28;20036;-66
2022/03/20 10:22:47;;;;;;;25.85;16.42;;;8.00;63.30;;;;;;5117435;28;20051;-65
2022/03/20 10:25:16;;;;;;;27.17;17.25;;;8.20;62.30;;;;;;5114979;28;20411;-66
2022/03/20 10:28:00;;;;;;;26.48;16.95;;;8.30;62.00;;;;;;5108354;28;20047;-66
2022/03/20 10:30:26;;;;;;;21.92;14.30;;;8.40;60.30;;;;;;5108556;28;20061;-66
2022/03/20 10:32:52;;;;;;;25.65;16.17;;;8.40;60.80;;;;;;5113430;28;20059;-66
2022/03/20 10:35:18;;;;;;;29.75;17.95;;;8.40;60.50;;;;;;5107716;28;20040;-65
2022/03/20 10:37:45;;;;;;;23.90;14.90;;;8.70;61.20;;;;;;5104757;28;20077;-66
2022/03/20 10:40:14;;;;;;;22.73;14.13;;;8.80;59.20;;;;;;5111444;28;20036;-67
2022/03/20 10:42:39;;;;;;;27.60;15.63;;;8.80;59.30;;;;;;5115389;28;20075;-65
2022/03/20 10:45:06;;;;;;;28.30;16.67;;;8.90;59.40;;;;;;5109979;28;20051;-68
2022/03/20 10:47:32;;;;;;;24.03;14.33;;;8.90;57.40;;;;;;5126595;28;20043;-69
2022/03/20 10:50:07;;;;;;;29.13;18.38;;;8.90;56.50;;;;;;5105425;28;20111;-68
2022/03/20 10:52:36;;;;;;;25.70;16.80;;;9.10;56.50;;;;;;5135181;27;20040;-72
2022/03/20 10:55:07;;;;;;;25.63;13.88;;;9.10;55.90;;;;;;5108616;28;20056;-71
2022/03/20 10:57:34;;;;;;;27.00;16.77;;;9.20;56.00;;;;;;5107854;28;20032;-65
2022/03/20 11:00:10;;;;;;;25.95;17.27;;;9.20;55.50;;;;;;5109943;28;20483;-67
2022/03/20 11:02:39;;;;;;;24.13;16.90;;;9.30;55.80;;;;;;5122071;28;20407;-72
2022/03/20 11:05:06;;;;;;;28.10;18.00;;;9.30;55.40;;;;;;5114966;28;20039;-62
2022/03/20 11:07:32;;;;;;;26.45;17.75;;;9.40;55.90;;;;;;5125503;28;20062;-71
2022/03/20 11:10:00;;;;;;;30.88;17.75;;;9.50;54.70;;;;;;5125174;28;20047;-66
2022/03/20 11:12:36;;;;;;;28.63;15.98;;;9.60;54.00;;;;;;5106103;28;20124;-66
2022/03/20 11:15:07;;;;;;;19.00;12.65;;;9.60;53.30;;;;;;5106383;28;20070;-62
2022/03/20 11:17:41;;;;;;;27.70;16.42;;;9.70;53.60;;;;;;5124741;28;20032;-62
2022/03/20 11:20:08;;;;;;;27.20;15.10;;;9.80;54.10;;;;;;5123817;28;20085;-64
2022/03/20 11:22:41;;;;;;;27.33;14.13;;;9.90;53.20;;;;;;5125991;28;20043;-63
2022/03/20 11:25:08;;;;;;;23.10;17.27;;;9.90;54.00;;;;;;5108892;28;20621;-65
2022/03/20 11:27:40;;;;;;;29.60;20.00;;;10.00;53.30;;;;;;5125237;28;20111;-76
2022/03/20 11:30:07;;;;;;;25.27;15.73;;;9.80;52.80;;;;;;5124575;28;20052;-73
2022/03/20 11:32:34;;;;;;;24.83;16.40;;;9.90;53.30;;;;;;5126413;28;20043;-69
2022/03/20 11:35:03;;;;;;;26.48;19.00;;;10.20;52.90;;;;;;5123903;28;20177;-71
2022/03/20 11:37:46;;;;;;;26.13;14.98;;;10.00;52.10;;;;;;5104839;28;20055;-63
2022/03/20 11:40:19;;;;;;;27.80;17.10;;;10.00;53.70;;;;;;5109784;28;20067;-64
2022/03/20 11:42:45;;;;;;;23.95;15.38;;;10.10;52.60;;;;;;5126028;28;20055;-71
2022/03/20 11:45:14;;;;;;;21.13;15.57;;;10.20;51.90;;;;;;5116416;28;20052;-66
2022/03/20 11:47:41;;;;;;;32.78;17.63;;;10.20;51.30;;;;;;5115281;28;20438;-68
2022/03/20 11:50:09;;;;;;;23.90;15.73;;;10.70;52.20;;;;;;5111585;28;20036;-68
2022/03/20 11:52:53;;;;;;;23.70;15.80;;;10.90;50.80;;;;;;5125340;28;20043;-69
2022/03/20 11:55:33;;;;;;;25.92;17.58;;;11.00;49.70;;;;;;5118200;27;20048;-61
2022/03/20 11:58:05;;;;;;;25.65;16.20;;;11.50;50.60;;;;;;5105157;28;20055;-70
2022/03/20 12:00:33;;;;;;;25.48;17.63;;;11.40;48.90;;;;;;5113483;28;20107;-64
2022/03/20 12:03:14;;;;;;;30.13;19.58;;;11.30;48.80;;;;;;5110561;28;20047;-66
2022/03/20 12:06:14;;;;;;;21.88;14.73;;;11.10;49.20;;;;;;5113465;28;20495;-63
2022/03/20 12:09:01;;;;;;;24.20;17.30;;;11.30;48.00;;;;;;5100912;28;20056;-69
2022/03/20 12:11:55;;;;;;;28.67;16.92;;;11.40;48.30;;;;;;5115330;28;20040;-66
2022/03/20 12:14:32;;;;;;;26.63;17.35;;;11.70;47.00;;;;;;5089499;28;20036;-68
2022/03/20 12:16:59;;;;;;;23.45;16.30;;;12.00;46.10;;;;;;5105152;28;20392;-67
2022/03/20 12:19:53;;;;;;;25.92;18.27;;;11.90;47.00;;;;;;5088224;28;20047;-68
2022/03/20 12:22:19;;;;;;;23.88;16.52;;;12.20;46.00;;;;;;5087355;28;20047;-67
2022/03/20 12:24:51;;;;;;;28.30;16.30;;;11.90;45.60;;;;;;5114143;28;20099;-68
2022/03/20 12:27:22;;;;;;;26.08;16.00;;;12.30;45.90;;;;;;5110866;28;20119;-68
2022/03/20 12:30:02;;;;;;;25.55;18.55;;;12.30;45.50;;;;;;5099200;28;20226;-68
2022/03/20 12:32:50;;;;;;;26.52;19.13;;;11.70;46.40;;;;;;5104362;28;20124;-67
2022/03/20 12:35:19;;;;;;;29.42;18.95;;;11.90;47.40;;;;;;5111707;28;20534;-67
2022/03/20 12:37:45;;;;;;;26.70;18.17;;;12.20;45.70;;;;;;5119390;28;20048;-68
2022/03/20 12:40:20;;;;;;;23.85;16.45;;;12.70;44.90;;;;;;5086873;28;20108;-68
2022/03/20 12:43:03;;;;;;;25.60;17.05;;;13.10;43.20;;;;;;5093546;28;20108;-67
2022/03/20 12:45:30;;;;;;;27.17;18.13;;;13.00;43.60;;;;;;5100174;28;20078;-68
2022/03/20 12:47:56;;;;;;;24.80;17.67;;;12.90;43.40;;;;;;5106238;28;20062;-68
2022/03/20 12:50:24;;;;;;;23.83;16.15;;;13.10;44.20;;;;;;5119721;28;20302;-68
2022/03/20 12:52:54;;;;;;;25.65;16.33;;;13.20;43.10;;;;;;5105267;28;20036;-66
2022/03/20 12:55:26;;;;;;;30.52;17.20;;;13.60;42.90;;;;;;5104496;28;20051;-67
2022/03/20 12:57:52;;;;;;;24.83;17.17;;;13.60;43.70;;;;;;5115671;28;20047;-67
2022/03/20 13:00:30;;;;;;;24.95;17.58;;;13.50;42.30;;;;;;5104239;28;20048;-67
2022/03/20 13:03:17;;;;;;;22.90;17.15;;;13.80;41.80;;;;;;5104111;28;20127;-66
2022/03/20 13:05:50;;;;;;;24.23;15.00;;;14.10;41.70;;;;;;5104148;28;20044;-67
2022/03/20 13:08:23;;;;;;;24.15;17.33;;;14.00;41.40;;;;;;5104035;28;20514;-66
2022/03/20 13:10:54;;;;;;;26.23;18.27;;;13.70;41.70;;;;;;5103330;28;20067;-66
2022/03/20 13:13:33;;;;;;;24.75;16.52;;;13.70;41.60;;;;;;5085814;28;20053;-66
2022/03/20 13:16:00;;;;;;;26.70;16.98;;;13.70;41.40;;;;;;5083697;28;20032;-66
2022/03/20 13:18:28;;;;;;;22.90;15.75;;;13.40;41.60;;;;;;5081818;28;20040;-66
2022/03/20 13:20:54;;;;;;;18.63;13.38;;;13.10;41.90;;;;;;5082991;28;20112;-66